sensor_id;sensor_type;location;lat;lon;timestamp;pressure;altitude;pressure_sealevel;temperature
76583;BMP280;65462;52.148;7.940;2023-04-12T00:01:27;99967.69;;;8.51
76583;BMP280;65462;52.148;7.940;2023-04-12T00:03:52;99963.94;;;8.52
76583;BMP280;65462;52.148;7.940;2023-04-12T00:06:18;99964.28;;;8.51
76583;BMP280;65462;52.148;7.940;2023-04-12T00:08:49;99953.31;;;8.49
76583;BMP280;65462;52.148;7.940;2023-04-12T00:11:15;99945.53;;;8.52
76583;BMP280;65462;52.148;7.940;2023-04-12T00:13:40;99937.97;;;8.51
76583;BMP280;65462;52.148;7.940;2023-04-12T00:16:06;99924.03;;;8.50
76583;BMP280;65462;52.148;7.940;2023-04-12T00:18:32;99928.50;;;8.50
76583;BMP280;65462;52.148;7.940;2023-04-12T00:20:57;99917.69;;;8.51
76583;BMP280;65462;52.148;7.940;2023-04-12T00:23:22;99912.41;;;8.51
76583;BMP280;65462;52.148;7.940;2023-04-12T00:25:48;99907.94;;;8.52
76583;BMP280;65462;52.148;7.940;2023-04-12T00:28:14;99907.94;;;8.52
76583;BMP280;65462;52.148;7.940;2023-04-12T00:30:39;99909.16;;;8.54
76583;BMP280;65462;52.148;7.940;2023-04-12T00:33:05;99905.75;;;8.54
76583;BMP280;65462;52.148;7.940;2023-04-12T00:35:31;99903.09;;;8.54
76583;BMP280;65462;52.148;7.940;2023-04-12T00:37:56;99908.38;;;8.54
76583;BMP280;65462;52.148;7.940;2023-04-12T00:40:21;99902.81;;;8.55
76583;BMP280;65462;52.148;7.940;2023-04-12T00:42:47;99911.00;;;8.54
76583;BMP280;65462;52.148;7.940;2023-04-12T00:45:12;99898.16;;;8.52
76583;BMP280;65462;52.148;7.940;2023-04-12T00:47:39;99896.28;;;8.53
76583;BMP280;65462;52.148;7.940;2023-04-12T00:50:07;99883.13;;;8.53
76583;BMP280;65462;52.148;7.940;2023-04-12T00:52:33;99873.38;;;8.53
76583;BMP280;65462;52.148;7.940;2023-04-12T00:55:03;99877.09;;;8.52
76583;BMP280;65462;52.148;7.940;2023-04-12T00:57:36;99875.22;;;8.53
76583;BMP280;65462;52.148;7.940;2023-04-12T01:00:09;99871.81;;;8.52
76583;BMP280;65462;52.148;7.940;2023-04-12T01:02:40;99865.47;;;8.53
76583;BMP280;65462;52.148;7.940;2023-04-12T01:05:07;99867.03;;;8.54
76583;BMP280;65462;52.148;7.940;2023-04-12T01:16:18;99841.16;;;8.56
76583;BMP280;65462;52.148;7.940;2023-04-12T01:18:47;99834.38;;;8.55
76583;BMP280;65462;52.148;7.940;2023-04-12T01:21:21;99833.25;;;8.56
76583;BMP280;65462;52.148;7.940;2023-04-12T01:24:05;99818.56;;;8.55
76583;BMP280;65462;52.148;7.940;2023-04-12T01:26:47;99813.31;;;8.55
76583;BMP280;65462;52.148;7.940;2023-04-12T01:29:15;99814.81;;;8.56
76583;BMP280;65462;52.148;7.940;2023-04-12T01:31:59;99805.06;;;8.57
76583;BMP280;65462;52.148;7.940;2023-04-12T01:34:27;99800.88;;;8.56
76583;BMP280;65462;52.148;7.940;2023-04-12T01:36:54;99798.69;;;8.58
76583;BMP280;65462;52.148;7.940;2023-04-12T01:39:21;99791.56;;;8.58
76583;BMP280;65462;52.148;7.940;2023-04-12T01:41:46;99789.69;;;8.59
76583;BMP280;65462;52.148;7.940;2023-04-12T01:44:14;99785.97;;;8.60
76583;BMP280;65462;52.148;7.940;2023-04-12T01:46:41;99784.41;;;8.59
76583;BMP280;65462;52.148;7.940;2023-04-12T01:49:07;99773.91;;;8.59
76583;BMP280;65462;52.148;7.940;2023-04-12T01:51:47;99767.53;;;8.60
76583;BMP280;65462;52.148;7.940;2023-04-12T01:54:18;99770.19;;;8.60
76583;BMP280;65462;52.148;7.940;2023-04-12T01:56:49;99762.19;;;8.56
76583;BMP280;65462;52.148;7.940;2023-04-12T01:59:18;99781.16;;;8.62
76583;BMP280;65462;52.148;7.940;2023-04-12T02:01:46;99767.53;;;8.60
76583;BMP280;65462;52.148;7.940;2023-04-12T02:04:13;99757.34;;;8.58
76583;BMP280;65462;52.148;7.940;2023-04-12T02:06:40;99757.00;;;8.60
76583;BMP280;65462;52.148;7.940;2023-04-12T02:09:05;99749.25;;;8.63
76583;BMP280;65462;52.148;7.940;2023-04-12T02:11:30;99752.97;;;8.62
76583;BMP280;65462;52.148;7.940;2023-04-12T02:13:56;99742.78;;;8.61
76583;BMP280;65462;52.148;7.940;2023-04-12T02:16:21;99745.84;;;8.63
76583;BMP280;65462;52.148;7.940;2023-04-12T02:18:50;99739.81;;;8.62
76583;BMP280;65462;52.148;7.940;2023-04-12T02:21:16;99735.66;;;8.61
76583;BMP280;65462;52.148;7.940;2023-04-12T02:23:41;99737.50;;;8.61
76583;BMP280;65462;52.148;7.940;2023-04-12T02:26:09;99735.66;;;8.61
76583;BMP280;65462;52.148;7.940;2023-04-12T02:28:35;99729.28;;;8.62
76583;BMP280;65462;52.148;7.940;2023-04-12T02:31:02;99715.34;;;8.62
76583;BMP280;65462;52.148;7.940;2023-04-12T02:33:27;99704.50;;;8.63
76583;BMP280;65462;52.148;7.940;2023-04-12T02:35:53;99703.06;;;8.66
76583;BMP280;65462;52.148;7.940;2023-04-12T02:38:18;99694.75;;;8.64
76583;BMP280;65462;52.148;7.940;2023-04-12T02:40:44;99687.94;;;8.63
76583;BMP280;65462;52.148;7.940;2023-04-12T02:43:09;99682.34;;;8.64
76583;BMP280;65462;52.148;7.940;2023-04-12T02:45:34;99660.06;;;8.62
76583;BMP280;65462;52.148;7.940;2023-04-12T02:48:00;99660.06;;;8.62
76583;BMP280;65462;52.148;7.940;2023-04-12T02:50:25;99658.97;;;8.63
76583;BMP280;65462;52.148;7.940;2023-04-12T02:52:51;99657.88;;;8.64
76583;BMP280;65462;52.148;7.940;2023-04-12T02:55:16;99658.66;;;8.64
76583;BMP280;65462;52.148;7.940;2023-04-12T02:57:43;99644.72;;;8.64
76583;BMP280;65462;52.148;7.940;2023-04-12T03:00:10;99639.47;;;8.64
76583;BMP280;65462;52.148;7.940;2023-04-12T03:02:36;99640.53;;;8.63
76583;BMP280;65462;52.148;7.940;2023-04-12T03:05:01;99645.81;;;8.63
76583;BMP280;65462;52.148;7.940;2023-04-12T03:07:27;99633.41;;;8.63
76583;BMP280;65462;52.148;7.940;2023-04-12T03:09:54;99629.22;;;8.62
76583;BMP280;65462;52.148;7.940;2023-04-12T03:12:19;99621.03;;;8.64
76583;BMP280;65462;52.148;7.940;2023-04-12T03:14:45;99619.47;;;8.63
76583;BMP280;65462;52.148;7.940;2023-04-12T03:17:10;99605.25;;;8.64
76583;BMP280;65462;52.148;7.940;2023-04-12T03:19:35;99610.50;;;8.64
76583;BMP280;65462;52.148;7.940;2023-04-12T03:22:02;99607.88;;;8.64
76583;BMP280;65462;52.148;7.940;2023-04-12T03:24:28;99595.13;;;8.66
76583;BMP280;65462;52.148;7.940;2023-04-12T03:26:53;99588.66;;;8.63
76583;BMP280;65462;52.148;7.940;2023-04-12T03:29:19;99578.91;;;8.64
76583;BMP280;65462;52.148;7.940;2023-04-12T03:31:44;99583.41;;;8.63
76583;BMP280;65462;52.148;7.940;2023-04-12T03:34:09;99568.47;;;8.67
76583;BMP280;65462;52.148;7.940;2023-04-12T03:36:35;99563.97;;;8.68
76583;BMP280;65462;52.148;7.940;2023-04-12T03:39:00;99554.97;;;8.69
76583;BMP280;65462;52.148;7.940;2023-04-12T03:41:27;99541.81;;;8.69
76583;BMP280;65462;52.148;7.940;2023-04-12T03:43:53;99543.66;;;8.68
76583;BMP280;65462;52.148;7.940;2023-04-12T03:46:18;99542.56;;;8.69
76583;BMP280;65462;52.148;7.940;2023-04-12T03:48:44;99537.66;;;8.68
76583;BMP280;65462;52.148;7.940;2023-04-12T03:51:09;99530.19;;;8.70
76583;BMP280;65462;52.148;7.940;2023-04-12T03:53:37;99522.28;;;8.70
76583;BMP280;65462;52.148;7.940;2023-04-12T03:56:03;99523.06;;;8.70
76583;BMP280;65462;52.148;7.940;2023-04-12T03:58:28;99502.31;;;8.69
76583;BMP280;65462;52.148;7.940;2023-04-12T04:00:53;99501.53;;;8.68
76583;BMP280;65462;52.148;7.940;2023-04-12T04:03:19;99489.59;;;8.71
76583;BMP280;65462;52.148;7.940;2023-04-12T04:05:46;99483.56;;;8.70
76583;BMP280;65462;52.148;7.940;2023-04-12T04:08:12;99481.38;;;8.72
76583;BMP280;65462;52.148;7.940;2023-04-12T04:10:38;99476.88;;;8.73
76583;BMP280;65462;52.148;7.940;2023-04-12T04:13:03;99456.47;;;8.70
76583;BMP280;65462;52.148;7.940;2023-04-12T04:15:28;99448.69;;;8.73
76583;BMP280;65462;52.148;7.940;2023-04-12T04:17:53;99440.00;;;8.73
76583;BMP280;65462;52.148;7.940;2023-04-12T04:20:19;99443.00;;;8.71
76583;BMP280;65462;52.148;7.940;2023-04-12T04:22:45;99444.50;;;8.72
76583;BMP280;65462;52.148;7.940;2023-04-12T04:25:14;99435.94;;;8.75
76583;BMP280;65462;52.148;7.940;2023-04-12T04:27:40;99434.75;;;8.73
76583;BMP280;65462;52.148;7.940;2023-04-12T04:30:06;99431.03;;;8.74
76583;BMP280;65462;52.148;7.940;2023-04-12T04:32:32;99430.25;;;8.73
76583;BMP280;65462;52.148;7.940;2023-04-12T04:34:58;99431.69;;;8.71
76583;BMP280;65462;52.148;7.940;2023-04-12T04:37:27;99420.03;;;8.72
76583;BMP280;65462;52.148;7.940;2023-04-12T04:39:53;99429.16;;;8.74
76583;BMP280;65462;52.148;7.940;2023-04-12T04:42:18;99429.91;;;8.75
76583;BMP280;65462;52.148;7.940;2023-04-12T04:44:43;99417.88;;;8.74
76583;BMP280;65462;52.148;7.940;2023-04-12T04:47:09;99407.75;;;8.76
76583;BMP280;65462;52.148;7.940;2023-04-12T04:49:35;99413.38;;;8.74
76583;BMP280;65462;52.148;7.940;2023-04-12T04:52:01;99405.53;;;8.78
76583;BMP280;65462;52.148;7.940;2023-04-12T04:54:27;99402.16;;;8.77
76583;BMP280;65462;52.148;7.940;2023-04-12T04:56:52;99402.91;;;8.78
76583;BMP280;65462;52.148;7.940;2023-04-12T04:59:17;99404.13;;;8.80
76583;BMP280;65462;52.148;7.940;2023-04-12T05:01:44;99392.16;;;8.83
76583;BMP280;65462;52.148;7.940;2023-04-12T05:04:09;99391.06;;;8.84
76583;BMP280;65462;52.148;7.940;2023-04-12T05:06:34;99383.91;;;8.84
76583;BMP280;65462;52.148;7.940;2023-04-12T05:09:00;99377.97;;;8.87
76583;BMP280;65462;52.148;7.940;2023-04-12T05:11:26;99364.03;;;8.87
76583;BMP280;65462;52.148;7.940;2023-04-12T05:13:51;99363.38;;;8.90
76583;BMP280;65462;52.148;7.940;2023-04-12T05:16:17;99356.25;;;8.90
76583;BMP280;65462;52.148;7.940;2023-04-12T05:18:43;99352.84;;;8.90
76583;BMP280;65462;52.148;7.940;2023-04-12T05:21:08;99351.28;;;8.89
76583;BMP280;65462;52.148;7.940;2023-04-12T05:23:41;99354.81;;;8.93
76583;BMP280;65462;52.148;7.940;2023-04-12T05:26:07;99349.97;;;8.95
76583;BMP280;65462;52.148;7.940;2023-04-12T05:28:32;99339.84;;;8.97
76583;BMP280;65462;52.148;7.940;2023-04-12T05:30:57;99342.50;;;8.97
76583;BMP280;65462;52.148;7.940;2023-04-12T05:33:22;99339.84;;;8.97
76583;BMP280;65462;52.148;7.940;2023-04-12T05:35:48;99330.44;;;8.96
76583;BMP280;65462;52.148;7.940;2023-04-12T05:38:13;99334.16;;;8.95
76583;BMP280;65462;52.148;7.940;2023-04-12T05:40:38;99321.75;;;8.96
76583;BMP280;65462;52.148;7.940;2023-04-12T05:43:04;99325.56;;;8.98
76583;BMP280;65462;52.148;7.940;2023-04-12T05:45:30;99325.91;;;8.97
76583;BMP280;65462;52.148;7.940;2023-04-12T05:47:55;99318.00;;;8.97
76583;BMP280;65462;52.148;7.940;2023-04-12T05:50:20;99320.28;;;8.98
76583;BMP280;65462;52.148;7.940;2023-04-12T05:52:46;99315.03;;;8.98
76583;BMP280;65462;52.148;7.940;2023-04-12T05:55:14;99308.00;;;9.02
76583;BMP280;65462;52.148;7.940;2023-04-12T05:57:43;99311.41;;;9.03
76583;BMP280;65462;52.148;7.940;2023-04-12T06:00:09;99309.63;;;9.07
76583;BMP280;65462;52.148;7.940;2023-04-12T06:02:38;99310.81;;;9.09
76583;BMP280;65462;52.148;7.940;2023-04-12T06:05:10;99300.28;;;9.09
76583;BMP280;65462;52.148;7.940;2023-04-12T06:07:37;99299.59;;;9.12
76583;BMP280;65462;52.148;7.940;2023-04-12T06:10:04;99296.19;;;9.12
76583;BMP280;65462;52.148;7.940;2023-04-12T06:12:29;99294.75;;;9.14
76583;BMP280;65462;52.148;7.940;2023-04-12T06:14:55;99282.41;;;9.18
76583;BMP280;65462;52.148;7.940;2023-04-12T06:17:20;99279.00;;;9.18
76583;BMP280;65462;52.148;7.940;2023-04-12T06:19:46;99287.69;;;9.18
76583;BMP280;65462;52.148;7.940;2023-04-12T06:22:11;99282.84;;;9.20
76583;BMP280;65462;52.148;7.940;2023-04-12T06:24:36;99267.47;;;9.22
76583;BMP280;65462;52.148;7.940;2023-04-12T06:27:02;99274.69;;;9.25
76583;BMP280;65462;52.148;7.940;2023-04-12T06:29:27;99264.13;;;9.25
76583;BMP280;65462;52.148;7.940;2023-04-12T06:31:52;99257.00;;;9.26
76583;BMP280;65462;52.148;7.940;2023-04-12T06:34:17;99259.75;;;9.29
76583;BMP280;65462;52.148;7.940;2023-04-12T06:36:43;99264.13;;;9.25
76583;BMP280;65462;52.148;7.940;2023-04-12T06:39:10;99247.91;;;9.23
76583;BMP280;65462;52.148;7.940;2023-04-12T06:41:36;99241.81;;;9.19
76583;BMP280;65462;52.148;7.940;2023-04-12T06:44:01;99238.41;;;9.19
76583;BMP280;65462;52.148;7.940;2023-04-12T06:46:27;99229.06;;;9.21
76583;BMP280;65462;52.148;7.940;2023-04-12T06:48:52;99225.66;;;9.21
76583;BMP280;65462;52.148;7.940;2023-04-12T06:51:18;99211.28;;;9.18
76583;BMP280;65462;52.148;7.940;2023-04-12T06:53:43;99222.25;;;9.20
76583;BMP280;65462;52.148;7.940;2023-04-12T06:56:08;99221.50;;;9.20
76583;BMP280;65462;52.148;7.940;2023-04-12T06:58:34;99210.97;;;9.20
76583;BMP280;65462;52.148;7.940;2023-04-12T07:01:06;99212.72;;;9.16
76583;BMP280;65462;52.148;7.940;2023-04-12T07:03:31;99204.06;;;9.15
76583;BMP280;65462;52.148;7.940;2023-04-12T07:05:57;99194.22;;;9.12
76583;BMP280;65462;52.148;7.940;2023-04-12T07:08:25;99192.75;;;9.15
76583;BMP280;65462;52.148;7.940;2023-04-12T07:10:53;99188.25;;;9.15
76583;BMP280;65462;52.148;7.940;2023-04-12T07:13:19;99175.44;;;9.14
76583;BMP280;65462;52.148;7.940;2023-04-12T07:15:44;99173.22;;;9.16
76583;BMP280;65462;52.148;7.940;2023-04-12T07:18:10;99167.94;;;9.16
76583;BMP280;65462;52.148;7.940;2023-04-12T07:20:35;99171.44;;;9.20
76583;BMP280;65462;52.148;7.940;2023-04-12T07:23:01;99164.28;;;9.20
76583;BMP280;65462;52.148;7.940;2023-04-12T07:25:26;99162.75;;;9.19
76583;BMP280;65462;52.148;7.940;2023-04-12T07:27:51;99161.66;;;9.20
76583;BMP280;65462;52.148;7.940;2023-04-12T07:30:16;99151.88;;;9.21
76583;BMP280;65462;52.148;7.940;2023-04-12T07:32:42;99153.06;;;9.23
76583;BMP280;65462;52.148;7.940;2023-04-12T07:35:07;99145.50;;;9.22
76583;BMP280;65462;52.148;7.940;2023-04-12T07:37:33;99137.94;;;9.20
76583;BMP280;65462;52.148;7.940;2023-04-12T07:39:58;99141.06;;;9.26
76583;BMP280;65462;52.148;7.940;2023-04-12T07:42:23;99138.75;;;9.24
76583;BMP280;65462;52.148;7.940;2023-04-12T07:44:48;99132.91;;;9.31
76583;BMP280;65462;52.148;7.940;2023-04-12T07:47:14;99127.69;;;9.34
76583;BMP280;65462;52.148;7.940;2023-04-12T07:49:39;99131.94;;;9.39
76583;BMP280;65462;52.148;7.940;2023-04-12T07:52:04;99122.59;;;9.41
76583;BMP280;65462;52.148;7.940;2023-04-12T07:54:30;99113.97;;;9.44
76583;BMP280;65462;52.148;7.940;2023-04-12T07:56:59;99108.78;;;9.48
76583;BMP280;65462;52.148;7.940;2023-04-12T07:59:25;99106.19;;;9.51
76583;BMP280;65462;52.148;7.940;2023-04-12T08:01:50;99106.59;;;9.53
76583;BMP280;65462;52.148;7.940;2023-04-12T08:04:15;99109.66;;;9.55
76583;BMP280;65462;52.148;7.940;2023-04-12T08:06:40;99111.59;;;9.58
76583;BMP280;65462;52.148;7.940;2023-04-12T08:09:06;99095.44;;;9.60
76583;BMP280;65462;52.148;7.940;2023-04-12T08:11:31;99106.06;;;9.64
76583;BMP280;65462;52.148;7.940;2023-04-12T08:13:59;99100.00;;;9.63
76583;BMP280;65462;52.148;7.940;2023-04-12T08:16:24;99105.38;;;9.67
76583;BMP280;65462;52.148;7.940;2023-04-12T08:18:50;99106.13;;;9.67
76583;BMP280;65462;52.148;7.940;2023-04-12T08:21:15;99089.22;;;9.68
76583;BMP280;65462;52.148;7.940;2023-04-12T08:23:41;99087.72;;;9.71
76583;BMP280;65462;52.148;7.940;2023-04-12T08:26:06;99093.41;;;9.73
76583;BMP280;65462;52.148;7.940;2023-04-12T08:28:31;99089.00;;;9.77
76583;BMP280;65462;52.148;7.940;2023-04-12T08:30:57;99082.19;;;9.76
76583;BMP280;65462;52.148;7.940;2023-04-12T08:33:23;99082.22;;;9.79
76583;BMP280;65462;52.148;7.940;2023-04-12T08:35:48;99081.44;;;9.79
76583;BMP280;65462;52.148;7.940;2023-04-12T08:38:14;99057.03;;;9.82
76583;BMP280;65462;52.148;7.940;2023-04-12T08:40:41;99069.94;;;9.87
76583;BMP280;65462;52.148;7.940;2023-04-12T08:43:07;99061.31;;;9.90
76583;BMP280;65462;52.148;7.940;2023-04-12T08:45:36;99074.59;;;9.93
76583;BMP280;65462;52.148;7.940;2023-04-12T08:48:02;99059.91;;;9.96
76583;BMP280;65462;52.148;7.940;2023-04-12T08:50:29;99066.72;;;9.97
76583;BMP280;65462;52.148;7.940;2023-04-12T08:52:54;99064.56;;;10.02
76583;BMP280;65462;52.148;7.940;2023-04-12T08:55:32;99055.16;;;10.05
76583;BMP280;65462;52.148;7.940;2023-04-12T08:57:57;99058.19;;;10.07
76583;BMP280;65462;52.148;7.940;2023-04-12T09:00:23;99051.50;;;10.09
76583;BMP280;65462;52.148;7.940;2023-04-12T09:02:49;99043.59;;;10.13
76583;BMP280;65462;52.148;7.940;2023-04-12T09:05:14;99048.53;;;10.14
76583;BMP280;65462;52.148;7.940;2023-04-12T09:07:40;99057.53;;;10.13
76583;BMP280;65462;52.148;7.940;2023-04-12T09:10:06;99049.28;;;10.15
76583;BMP280;65462;52.148;7.940;2023-04-12T09:12:31;99045.56;;;10.16
76583;BMP280;65462;52.148;7.940;2023-04-12T09:15:16;99042.47;;;10.14
76583;BMP280;65462;52.148;7.940;2023-04-12T09:17:42;99037.94;;;10.11
76583;BMP280;65462;52.148;7.940;2023-04-12T09:22:42;99037.53;;;10.09
76583;BMP280;65462;52.148;7.940;2023-04-12T09:25:12;99030.72;;;10.08
76583;BMP280;65462;52.148;7.940;2023-04-12T09:27:51;99023.56;;;10.08
76583;BMP280;65462;52.148;7.940;2023-04-12T09:30:18;99027.38;;;10.11
76583;BMP280;65462;52.148;7.940;2023-04-12T09:32:43;99016.75;;;10.07
76583;BMP280;65462;52.148;7.940;2023-04-12T09:35:09;99017.19;;;10.09
76583;BMP280;65462;52.148;7.940;2023-04-12T09:37:34;99010.03;;;10.10
76583;BMP280;65462;52.148;7.940;2023-04-12T09:40:07;99003.25;;;10.12
76583;BMP280;65462;52.148;7.940;2023-04-12T09:42:34;99006.38;;;10.18
76583;BMP280;65462;52.148;7.940;2023-04-12T09:45:00;99008.69;;;10.19
76583;BMP280;65462;52.148;7.940;2023-04-12T09:47:39;99012.47;;;10.22
76583;BMP280;65462;52.148;7.940;2023-04-12T09:50:07;98994.81;;;10.26
76583;BMP280;65462;52.148;7.940;2023-04-12T09:52:37;99006.53;;;10.28
76583;BMP280;65462;52.148;7.940;2023-04-12T09:55:07;99005.78;;;10.28
76583;BMP280;65462;52.148;7.940;2023-04-12T09:57:33;99002.81;;;10.33
76583;BMP280;65462;52.148;7.940;2023-04-12T10:00:03;98998.66;;;10.32
76583;BMP280;65462;52.148;7.940;2023-04-12T10:02:29;98992.25;;;10.33
76583;BMP280;65462;52.148;7.940;2023-04-12T10:04:55;99000.16;;;10.33
76583;BMP280;65462;52.148;7.940;2023-04-12T10:07:21;98993.78;;;10.34
76583;BMP280;65462;52.148;7.940;2023-04-12T10:09:46;98988.53;;;10.38
76583;BMP280;65462;52.148;7.940;2023-04-12T10:12:12;98990.13;;;10.42
76583;BMP280;65462;52.148;7.940;2023-04-12T10:14:38;98996.63;;;10.48
76583;BMP280;65462;52.148;7.940;2023-04-12T10:17:04;98986.47;;;10.50
76583;BMP280;65462;52.148;7.940;2023-04-12T10:19:31;98982.03;;;10.58
76583;BMP280;65462;52.148;7.940;2023-04-12T10:21:58;98993.03;;;10.63
76583;BMP280;65462;52.148;7.940;2023-04-12T10:24:25;98988.22;;;10.69
76583;BMP280;65462;52.148;7.940;2023-04-12T10:26:52;98976.22;;;10.75
76583;BMP280;65462;52.148;7.940;2023-04-12T10:29:29;98979.69;;;10.82
76583;BMP280;65462;52.148;7.940;2023-04-12T10:32:23;98979.72;;;10.86
76583;BMP280;65462;52.148;7.940;2023-04-12T10:34:57;98978.69;;;10.90
76583;BMP280;65462;52.148;7.940;2023-04-12T10:38:01;98975.69;;;10.95
76583;BMP280;65462;52.148;7.940;2023-04-12T10:40:31;98968.94;;;11.01
76583;BMP280;65462;52.148;7.940;2023-04-12T10:45:47;98971.34;;;11.14
76583;BMP280;65462;52.148;7.940;2023-04-12T10:48:35;98968.72;;;11.17
76583;BMP280;65462;52.148;7.940;2023-04-12T10:51:18;98968.78;;;11.21
76583;BMP280;65462;52.148;7.940;2023-04-12T10:56:45;98961.28;;;11.23
76583;BMP280;65462;52.148;7.940;2023-04-12T10:59:12;98957.50;;;11.24
76583;BMP280;65462;52.148;7.940;2023-04-12T11:01:39;98955.63;;;11.28
76583;BMP280;65462;52.148;7.940;2023-04-12T11:06:54;98948.13;;;11.33
76583;BMP280;65462;52.148;7.940;2023-04-12T11:09:28;98953.09;;;11.38
76583;BMP280;65462;52.148;7.940;2023-04-12T11:11:57;98951.66;;;11.48
76583;BMP280;65462;52.148;7.940;2023-04-12T11:14:27;98952.09;;;11.57
76583;BMP280;65462;52.148;7.940;2023-04-12T11:19:55;98949.56;;;11.67
76583;BMP280;65462;52.148;7.940;2023-04-12T11:22:22;98949.97;;;11.73
76583;BMP280;65462;52.148;7.940;2023-04-12T11:24:53;98950.38;;;11.79
76583;BMP280;65462;52.148;7.940;2023-04-12T11:27:20;98940.94;;;11.81
76583;BMP280;65462;52.148;7.940;2023-04-12T11:29:48;98937.53;;;11.84
76583;BMP280;65462;52.148;7.940;2023-04-12T11:32:13;98938.31;;;11.85
76583;BMP280;65462;52.148;7.940;2023-04-12T11:34:40;98938.75;;;11.90
76583;BMP280;65462;52.148;7.940;2023-04-12T11:37:06;98928.53;;;11.92
76583;BMP280;65462;52.148;7.940;2023-04-12T11:39:37;98928.16;;;11.90
76583;BMP280;65462;52.148;7.940;2023-04-12T11:42:03;98924.78;;;11.93
76583;BMP280;65462;52.148;7.940;2023-04-12T11:44:31;98932.72;;;11.93
76583;BMP280;65462;52.148;7.940;2023-04-12T11:46:56;98923.25;;;11.92
76583;BMP280;65462;52.148;7.940;2023-04-12T11:49:22;98931.97;;;11.93
76583;BMP280;65462;52.148;7.940;2023-04-12T11:51:47;98941.00;;;11.92
76583;BMP280;65462;52.148;7.940;2023-04-12T11:54:13;98937.59;;;11.88
76583;BMP280;65462;52.148;7.940;2023-04-12T11:56:40;98936.84;;;11.87
76583;BMP280;65462;52.148;7.940;2023-04-12T11:59:05;98935.66;;;11.81
76583;BMP280;65462;52.148;7.940;2023-04-12T12:01:33;98934.88;;;11.77
76583;BMP280;65462;52.148;7.940;2023-04-12T12:04:00;98933.34;;;11.72
76583;BMP280;65462;52.148;7.940;2023-04-12T12:06:25;98934.81;;;11.66
76583;BMP280;65462;52.148;7.940;2023-04-12T12:08:52;98940.06;;;11.63
76583;BMP280;65462;52.148;7.940;2023-04-12T12:11:21;98940.44;;;11.65
76583;BMP280;65462;52.148;7.940;2023-04-12T12:13:48;98942.34;;;11.64
76583;BMP280;65462;52.148;7.940;2023-04-12T12:16:14;98945.34;;;11.63
76583;BMP280;65462;52.148;7.940;2023-04-12T12:18:43;98943.09;;;11.65
76583;BMP280;65462;52.148;7.940;2023-04-12T12:21:10;98944.25;;;11.64
76583;BMP280;65462;52.148;7.940;2023-04-12T12:23:36;98949.16;;;11.65
76583;BMP280;65462;52.148;7.940;2023-04-12T12:26:02;98943.09;;;11.65
76583;BMP280;65462;52.148;7.940;2023-04-12T12:28:28;98936.31;;;11.64
76583;BMP280;65462;52.148;7.940;2023-04-12T12:30:55;98923.84;;;11.68
76583;BMP280;65462;52.148;7.940;2023-04-12T12:33:21;98929.94;;;11.72
76583;BMP280;65462;52.148;7.940;2023-04-12T12:35:54;98927.31;;;11.79
76583;BMP280;65462;52.148;7.940;2023-04-12T12:38:20;98937.25;;;11.89
76583;BMP280;65462;52.148;7.940;2023-04-12T12:40:45;98928.97;;;12.01
76583;BMP280;65462;52.148;7.940;2023-04-12T12:43:17;98930.91;;;12.08
76583;BMP280;65462;52.148;7.940;2023-04-12T12:45:42;98932.81;;;12.14
76583;BMP280;65462;52.148;7.940;2023-04-12T12:48:08;98929.84;;;12.19
76583;BMP280;65462;52.148;7.940;2023-04-12T12:50:34;98928.34;;;12.22
76583;BMP280;65462;52.148;7.940;2023-04-12T12:53:00;98930.59;;;12.23
76583;BMP280;65462;52.148;7.940;2023-04-12T12:55:27;98929.50;;;12.24
76583;BMP280;65462;52.148;7.940;2023-04-12T12:57:54;98919.66;;;12.25
76583;BMP280;65462;52.148;7.940;2023-04-12T13:00:22;98918.91;;;12.24
76583;BMP280;65462;52.148;7.940;2023-04-12T13:02:47;98918.91;;;12.24
76583;BMP280;65462;52.148;7.940;2023-04-12T13:05:13;98913.22;;;12.26
76583;BMP280;65462;52.148;7.940;2023-04-12T13:07:38;98921.53;;;12.24
76583;BMP280;65462;52.148;7.940;2023-04-12T13:10:04;98926.47;;;12.22
76583;BMP280;65462;52.148;7.940;2023-04-12T13:12:30;98932.09;;;12.21
76583;BMP280;65462;52.148;7.940;2023-04-12T13:14:56;98925.28;;;12.16
76583;BMP280;65462;52.148;7.940;2023-04-12T13:17:21;98920.72;;;12.13
76583;BMP280;65462;52.148;7.940;2023-04-12T13:19:47;98918.47;;;12.15
76583;BMP280;65462;52.148;7.940;2023-04-12T13:22:13;98919.25;;;12.19
76583;BMP280;65462;52.148;7.940;2023-04-12T13:24:39;98914.34;;;12.21
76583;BMP280;65462;52.148;7.940;2023-04-12T13:27:04;98904.13;;;12.27
76583;BMP280;65462;52.148;7.940;2023-04-12T13:29:29;98902.66;;;12.36
76583;BMP280;65462;52.148;7.940;2023-04-12T13:31:55;98890.59;;;12.49
76583;BMP280;65462;52.148;7.940;2023-04-12T13:34:20;98894.81;;;12.61
76583;BMP280;65462;52.148;7.940;2023-04-12T13:36:46;98895.22;;;12.77
76583;BMP280;65462;52.148;7.940;2023-04-12T13:39:11;98891.44;;;12.89
76583;BMP280;65462;52.148;7.940;2023-04-12T13:41:36;98874.81;;;13.02
76583;BMP280;65462;52.148;7.940;2023-04-12T13:44:02;98868.38;;;13.17
76583;BMP280;65462;52.148;7.940;2023-04-12T13:46:29;98866.84;;;13.34
76583;BMP280;65462;52.148;7.940;2023-04-12T13:48:54;98871.75;;;13.50
76583;BMP280;65462;52.148;7.940;2023-04-12T13:51:20;98870.19;;;13.66
76583;BMP280;65462;52.148;7.940;2023-04-12T13:53:45;98871.69;;;13.74
76583;BMP280;65462;52.148;7.940;2023-04-12T13:56:10;98872.41;;;13.78
76583;BMP280;65462;52.148;7.940;2023-04-12T13:58:36;98880.00;;;13.83
76583;BMP280;65462;52.148;7.940;2023-04-12T14:01:04;98881.13;;;13.86
76583;BMP280;65462;52.148;7.940;2023-04-12T14:03:29;98879.97;;;13.90
76583;BMP280;65462;52.148;7.940;2023-04-12T14:05:55;98872.38;;;13.96
76583;BMP280;65462;52.148;7.940;2023-04-12T14:08:20;98871.94;;;14.01
76583;BMP280;65462;52.148;7.940;2023-04-12T14:10:46;98864.75;;;14.01
76583;BMP280;65462;52.148;7.940;2023-04-12T14:13:11;98859.44;;;14.01
76583;BMP280;65462;52.148;7.940;2023-04-12T14:15:37;98864.00;;;14.04
76583;BMP280;65462;52.148;7.940;2023-04-12T14:18:02;98862.09;;;14.05
76583;BMP280;65462;52.148;7.940;2023-04-12T14:20:27;98861.69;;;14.06
76583;BMP280;65462;52.148;7.940;2023-04-12T14:22:53;98860.16;;;14.13
76583;BMP280;65462;52.148;7.940;2023-04-12T14:25:18;98857.88;;;14.15
76583;BMP280;65462;52.148;7.940;2023-04-12T14:27:43;98858.22;;;14.20
76583;BMP280;65462;52.148;7.940;2023-04-12T14:30:08;98852.50;;;14.29
76583;BMP280;65462;52.148;7.940;2023-04-12T14:32:34;98849.47;;;14.23
76583;BMP280;65462;52.148;7.940;2023-04-12T14:34:59;98858.97;;;14.24
76583;BMP280;65462;52.148;7.940;2023-04-12T14:37:25;98863.47;;;14.31